createdAt,value
2023-03-06T00:01:08.661Z,98025.46
2023-03-06T00:03:36.357Z,98024.25
2023-03-06T00:06:04.163Z,98023.02
2023-03-06T00:08:31.807Z,98021.98
2023-03-06T00:10:59.571Z,98017.65
2023-03-06T00:13:30.069Z,98020.85
2023-03-06T00:16:00.160Z,98019.89
2023-03-06T00:18:27.758Z,98012.27
2023-03-06T00:20:55.409Z,98015.75
2023-03-06T00:23:23.022Z,98017.37
2023-03-06T00:25:50.645Z,98018.36
2023-03-06T00:28:18.250Z,98013.35
2023-03-06T00:30:48.723Z,98019.53
2023-03-06T00:33:16.347Z,98019.01
2023-03-06T00:35:44.077Z,98019.00
2023-03-06T00:38:14.385Z,98016.98
2023-03-06T00:40:41.996Z,98014.44
2023-03-06T00:43:09.928Z,98013.79
2023-03-06T00:45:38.012Z,98015.27
2023-03-06T00:48:05.990Z,98014.35
2023-03-06T00:50:35.180Z,98012.64
2023-03-06T00:53:03.323Z,98010.80
2023-03-06T00:55:33.329Z,98010.94
2023-03-06T00:58:01.015Z,98006.79
2023-03-06T01:00:29.022Z,98002.89
2023-03-06T01:02:56.839Z,98005.30
2023-03-06T01:05:24.965Z,98004.30
2023-03-06T01:07:53.005Z,98002.30
2023-03-06T01:10:20.873Z,98005.03
2023-03-06T01:12:49.176Z,98001.98
2023-03-06T01:15:16.807Z,97999.23
2023-03-06T01:17:44.944Z,97996.98
2023-03-06T01:20:17.607Z,97995.64
2023-03-06T01:22:45.897Z,97993.73
2023-03-06T01:25:14.262Z,97996.13
2023-03-06T01:27:42.044Z,97992.67
2023-03-06T01:30:12.259Z,97993.21
2023-03-06T01:32:40.043Z,97988.70
2023-03-06T01:35:12.045Z,97992.36
2023-03-06T01:37:40.218Z,97990.71
2023-03-06T01:40:12.430Z,97991.04
2023-03-06T01:42:40.450Z,97989.11
2023-03-06T01:45:28.507Z,97985.02
2023-03-06T01:47:56.097Z,97986.34
2023-03-06T01:50:23.860Z,97981.45
2023-03-06T01:52:55.797Z,97981.52
2023-03-06T01:55:26.728Z,97981.11
2023-03-06T01:57:57.847Z,97982.80
2023-03-06T02:00:27.963Z,97981.47
2023-03-06T02:03:14.863Z,97981.56
2023-03-06T02:05:44.405Z,97979.86
2023-03-06T02:08:16.539Z,97977.67
2023-03-06T02:11:15.636Z,97974.31
2023-03-06T02:13:44.610Z,97973.50
2023-03-06T02:16:14.139Z,97970.80
2023-03-06T02:18:43.142Z,97969.61
2023-03-06T02:21:14.355Z,97966.95
2023-03-06T02:23:54.618Z,97972.19
2023-03-06T02:26:22.615Z,97969.97
2023-03-06T02:28:50.305Z,97971.50
2023-03-06T02:31:27.674Z,97968.09
2023-03-06T02:34:27.761Z,97967.09
2023-03-06T02:37:01.568Z,97962.69
2023-03-06T02:39:31.581Z,97961.80
2023-03-06T02:41:59.380Z,97964.52
2023-03-06T02:44:28.775Z,97960.84
2023-03-06T02:46:56.403Z,97954.98
2023-03-06T02:49:26.379Z,97955.58
2023-03-06T02:51:54.244Z,97956.55
2023-03-06T02:54:21.910Z,97951.19
2023-03-06T02:56:50.277Z,97950.58
2023-03-06T02:59:18.222Z,97944.61
2023-03-06T03:01:47.948Z,97947.66
2023-03-06T03:04:16.385Z,97948.22
2023-03-06T03:06:44.330Z,97943.33
2023-03-06T03:09:12.407Z,97945.19
2023-03-06T03:11:40.592Z,97938.96
2023-03-06T03:14:08.295Z,97941.13
2023-03-06T03:16:37.528Z,97934.98
2023-03-06T03:19:06.735Z,97937.40
2023-03-06T03:21:34.794Z,97936.53
2023-03-06T03:24:02.510Z,97931.70
2023-03-06T03:26:30.163Z,97935.47
2023-03-06T03:29:05.212Z,97933.44
2023-03-06T03:31:33.081Z,97930.08
2023-03-06T03:34:01.658Z,97928.49
2023-03-06T03:36:30.103Z,97926.53
2023-03-06T03:38:58.620Z,97927.29
2023-03-06T03:41:26.307Z,97923.03
2023-03-06T03:43:53.982Z,97923.14
2023-03-06T03:46:21.940Z,97921.56
2023-03-06T03:48:50.525Z,97916.80
2023-03-06T03:51:19.007Z,97917.35
2023-03-06T03:53:49.390Z,97919.53
2023-03-06T03:56:19.419Z,97913.77
2023-03-06T03:58:54.555Z,97917.02
2023-03-06T04:01:23.180Z,97918.46
2023-03-06T04:03:51.286Z,97917.52
2023-03-06T04:06:19.672Z,97912.89
2023-03-06T04:08:47.807Z,97912.76
2023-03-06T04:11:16.093Z,97910.70
2023-03-06T04:13:44.367Z,97911.77
2023-03-06T04:16:12.112Z,97913.30
2023-03-06T04:18:40.819Z,97913.27
2023-03-06T04:21:09.064Z,97912.30
2023-03-06T04:23:37.723Z,97903.83
2023-03-06T04:26:06.682Z,97904.87
2023-03-06T04:28:34.576Z,97900.80
2023-03-06T04:31:02.590Z,97904.38
2023-03-06T04:33:31.080Z,97900.39
2023-03-06T04:35:59.482Z,97898.29
2023-03-06T04:38:29.430Z,97897.93
2023-03-06T04:40:57.076Z,97896.82
2023-03-06T04:43:24.731Z,97893.27
2023-03-06T04:45:52.386Z,97889.67
2023-03-06T04:48:20.148Z,97884.67
2023-03-06T04:50:47.839Z,97879.33
2023-03-06T04:53:16.845Z,97878.23
2023-03-06T04:55:44.566Z,97878.29
2023-03-06T04:58:12.284Z,97877.73
2023-03-06T05:00:39.988Z,97876.97
2023-03-06T05:03:08.805Z,97881.39
2023-03-06T05:05:36.430Z,97880.09
2023-03-06T05:08:04.310Z,97878.99
2023-03-06T05:10:31.967Z,97879.62
2023-03-06T05:12:59.619Z,97882.54
2023-03-06T05:15:27.237Z,97881.02
2023-03-06T05:17:56.476Z,97880.77
2023-03-06T05:20:24.336Z,97881.10
2023-03-06T05:22:51.984Z,97877.61
2023-03-06T05:25:19.623Z,97875.03
2023-03-06T05:27:47.563Z,97877.31
2023-03-06T05:30:15.424Z,97878.90
2023-03-06T05:32:43.278Z,97879.91
2023-03-06T05:35:20.694Z,97883.80
2023-03-06T05:37:48.838Z,97879.45
2023-03-06T05:40:16.726Z,97881.41
2023-03-06T05:42:44.925Z,97879.77
2023-03-06T05:45:12.614Z,97880.99
2023-03-06T05:47:40.295Z,97878.75
2023-03-06T05:50:10.412Z,97882.64
2023-03-06T05:52:39.577Z,97885.60
2023-03-06T05:55:08.080Z,97879.29
2023-03-06T05:57:35.686Z,97880.29
2023-03-06T06:00:04.013Z,97873.30
2023-03-06T06:02:41.579Z,97874.84
2023-03-06T06:05:12.556Z,97871.08
2023-03-06T06:07:41.327Z,97870.06
2023-03-06T06:10:09.710Z,97868.21
2023-03-06T06:12:37.438Z,97866.89
2023-03-06T06:15:06.630Z,97867.98
2023-03-06T06:17:34.538Z,97865.02
2023-03-06T06:20:02.345Z,97861.54
2023-03-06T06:22:29.977Z,97862.44
2023-03-06T06:24:57.848Z,97861.55
2023-03-06T06:27:25.428Z,97862.30
2023-03-06T06:29:53.032Z,97859.88
2023-03-06T06:32:20.689Z,97855.80
2023-03-06T06:34:48.345Z,97851.66
2023-03-06T06:37:16.692Z,97852.50
2023-03-06T06:39:44.284Z,97848.41
2023-03-06T06:42:30.274Z,97853.98
2023-03-06T06:44:59.694Z,97851.79
2023-03-06T06:47:27.316Z,97850.23
2023-03-06T06:49:56.178Z,97849.16
2023-03-06T06:52:24.846Z,97853.75
2023-03-06T06:54:52.920Z,97847.39
2023-03-06T06:57:20.667Z,97845.60
2023-03-06T06:59:48.300Z,97843.52
2023-03-06T07:02:16.427Z,97838.14
2023-03-06T07:05:00.636Z,97841.05
2023-03-06T07:07:32.958Z,97841.40
2023-03-06T07:10:00.695Z,97838.77
2023-03-06T07:12:28.406Z,97841.14
2023-03-06T07:14:56.055Z,97839.65
2023-03-06T07:17:23.638Z,97829.56
2023-03-06T07:19:51.426Z,97828.59
2023-03-06T07:22:19.024Z,97831.92
2023-03-06T07:24:46.751Z,97828.31
2023-03-06T07:27:14.345Z,97833.80
2023-03-06T07:29:44.733Z,97828.42
2023-03-06T07:32:12.530Z,97827.19
2023-03-06T07:34:40.232Z,97822.63
2023-03-06T07:37:07.869Z,97821.70
2023-03-06T07:39:35.780Z,97823.35
2023-03-06T07:42:04.179Z,97817.91
2023-03-06T07:44:36.524Z,97816.14
2023-03-06T07:47:05.308Z,97812.98
2023-03-06T07:49:34.243Z,97809.15
2023-03-06T07:52:02.012Z,97813.27
2023-03-06T07:54:30.775Z,97811.60
2023-03-06T07:56:58.634Z,97808.54
2023-03-06T07:59:26.299Z,97811.79
2023-03-06T08:01:55.467Z,97813.64
2023-03-06T08:04:23.222Z,97811.86
2023-03-06T08:06:50.822Z,97810.27
2023-03-06T08:09:18.433Z,97807.73
2023-03-06T08:11:46.090Z,97812.31
2023-03-06T08:14:13.749Z,97808.50
2023-03-06T08:16:41.439Z,97806.60
2023-03-06T08:19:09.392Z,97803.73
2023-03-06T08:21:37.047Z,97803.98
2023-03-06T08:24:06.287Z,97802.77
2023-03-06T08:26:34.718Z,97798.70
2023-03-06T08:29:03.273Z,97795.14
2023-03-06T08:31:32.273Z,97793.35
2023-03-06T08:34:02.314Z,97789.68
2023-03-06T08:36:30.030Z,97788.80
2023-03-06T08:38:58.173Z,97787.38
2023-03-06T08:41:25.931Z,97787.02
2023-03-06T08:43:53.547Z,97790.04
2023-03-06T08:46:23.299Z,97789.23
2023-03-06T08:48:51.059Z,97781.91
2023-03-06T08:51:19.485Z,97786.85
2023-03-06T08:53:47.128Z,97783.42
2023-03-06T08:56:20.146Z,97784.46
2023-03-06T08:58:48.678Z,97782.52
2023-03-06T09:01:21.685Z,97774.71
2023-03-06T09:03:49.781Z,97780.66
2023-03-06T09:06:17.721Z,97778.78
2023-03-06T09:08:45.340Z,97779.77
2023-03-06T09:11:15.031Z,97776.71
2023-03-06T09:13:43.058Z,97773.10
2023-03-06T09:16:11.458Z,97774.47
2023-03-06T09:18:39.366Z,97772.93
2023-03-06T09:21:08.015Z,97771.87
2023-03-06T09:23:37.115Z,97767.19
2023-03-06T09:26:05.641Z,97762.81
2023-03-06T09:28:36.016Z,97766.55
2023-03-06T09:31:25.609Z,97764.41
2023-03-06T09:33:53.199Z,97761.35
2023-03-06T09:36:22.105Z,97757.11
2023-03-06T09:38:50.571Z,97755.14
2023-03-06T09:41:36.057Z,97758.23
2023-03-06T09:44:20.232Z,97753.65
2023-03-06T09:47:01.069Z,97753.79
2023-03-06T09:50:06.066Z,97753.44
2023-03-06T09:52:45.957Z,97750.27
2023-03-06T09:55:18.098Z,97745.02
2023-03-06T09:57:55.893Z,97746.65
2023-03-06T10:00:32.112Z,97746.16
2023-03-06T10:03:14.165Z,97743.31
2023-03-06T10:05:46.509Z,97739.46
2023-03-06T10:08:21.669Z,97734.71
2023-03-06T10:11:26.367Z,97725.61
2023-03-06T10:14:10.039Z,97722.29
2023-03-06T10:16:37.732Z,97724.05
2023-03-06T10:19:12.817Z,97725.91
2023-03-06T10:21:46.574Z,97723.36
2023-03-06T10:24:30.644Z,97718.11
2023-03-06T10:27:16.627Z,97718.27
2023-03-06T10:30:02.267Z,97715.92
2023-03-06T10:32:55.245Z,97716.30
2023-03-06T10:35:30.376Z,97715.02
2023-03-06T10:38:01.647Z,97714.39
2023-03-06T10:40:36.199Z,97715.06
2023-03-06T10:43:12.104Z,97714.23
2023-03-06T10:45:49.776Z,97711.05
2023-03-06T10:48:20.689Z,97707.84
2023-03-06T10:50:48.508Z,97710.20
2023-03-06T10:53:24.070Z,97705.23
2023-03-06T10:55:59.317Z,97704.42
2023-03-06T10:58:29.997Z,97705.30
2023-03-06T11:01:07.231Z,97699.56
2023-03-06T11:03:36.594Z,97701.95
2023-03-06T11:06:13.385Z,97697.74
2023-03-06T11:08:43.517Z,97693.64
2023-03-06T11:11:14.478Z,97696.92
2023-03-06T11:13:44.071Z,97693.03
2023-03-06T11:16:30.646Z,97691.55
2023-03-06T11:19:01.213Z,97688.97
2023-03-06T11:21:32.890Z,97687.53
2023-03-06T11:24:04.102Z,97680.77
2023-03-06T11:26:54.999Z,97683.94
2023-03-06T11:29:34.571Z,97685.80
2023-03-06T11:32:09.378Z,97689.11
2023-03-06T11:34:51.263Z,97685.40
2023-03-06T11:37:30.833Z,97686.64
2023-03-06T11:40:07.975Z,97683.77
2023-03-06T11:42:54.266Z,97687.11
2023-03-06T11:45:43.641Z,97686.05
2023-03-06T11:48:19.306Z,97685.03
2023-03-06T11:50:57.590Z,97689.64
2023-03-06T11:53:33.342Z,97689.86
2023-03-06T11:56:19.572Z,97686.98
2023-03-06T11:59:21.425Z,97687.88
2023-03-06T12:01:54.772Z,97680.54
2023-03-06T12:04:40.035Z,97683.06
2023-03-06T12:07:55.912Z,97685.20
2023-03-06T12:10:33.696Z,97683.52
2023-03-06T12:13:58.333Z,97681.54
2023-03-06T12:16:35.063Z,97684.02
2023-03-06T12:19:28.392Z,97682.38
2023-03-06T12:22:22.188Z,97679.11
2023-03-06T12:25:20.507Z,97681.52
2023-03-06T12:27:57.031Z,97678.61
2023-03-06T12:30:58.612Z,97679.14
2023-03-06T12:33:49.444Z,97675.43
2023-03-06T12:36:33.652Z,97677.05
2023-03-06T12:39:46.676Z,97675.36
2023-03-06T12:42:40.109Z,97674.58
2023-03-06T12:45:22.502Z,97674.64
2023-03-06T12:47:55.561Z,97672.46
2023-03-06T12:50:31.103Z,97671.38
2023-03-06T12:53:02.087Z,97672.84
2023-03-06T12:55:39.112Z,97672.36
2023-03-06T12:58:31.786Z,97673.05
2023-03-06T13:01:30.444Z,97675.27
2023-03-06T13:04:17.093Z,97676.81
2023-03-06T13:07:08.081Z,97672.64
2023-03-06T13:10:10.340Z,97675.82
2023-03-06T13:12:49.857Z,97675.63
2023-03-06T13:15:29.397Z,97673.71
2023-03-06T13:17:57.527Z,97677.15
2023-03-06T13:20:29.565Z,97678.39
2023-03-06T13:22:58.497Z,97672.27
2023-03-06T13:25:26.118Z,97677.45
2023-03-06T13:27:53.948Z,97673.64
2023-03-06T13:30:36.786Z,97673.20
2023-03-06T13:33:26.689Z,97677.17
2023-03-06T13:35:56.713Z,97674.54
2023-03-06T13:38:34.560Z,97672.45
2023-03-06T13:41:20.381Z,97670.10
2023-03-06T13:43:52.968Z,97670.66
2023-03-06T13:46:24.933Z,97676.17
2023-03-06T13:49:08.158Z,97670.14
2023-03-06T13:51:43.870Z,97667.98
2023-03-06T13:54:42.439Z,97669.74
2023-03-06T13:57:47.685Z,97665.53
2023-03-06T14:00:25.834Z,97661.23
2023-03-06T14:03:04.936Z,97660.88
2023-03-06T14:05:46.520Z,97661.23
2023-03-06T14:08:23.972Z,97661.92
2023-03-06T14:11:05.834Z,97659.00
2023-03-06T14:13:46.608Z,97661.39
2023-03-06T14:16:21.180Z,97654.17
2023-03-06T14:18:51.632Z,97652.64
2023-03-06T14:21:37.474Z,97650.63
2023-03-06T14:24:05.715Z,97648.40
2023-03-06T14:26:40.350Z,97649.56
2023-03-06T14:29:20.282Z,97649.13
2023-03-06T14:31:53.127Z,97650.13
2023-03-06T14:34:23.038Z,97645.71
2023-03-06T14:36:53.028Z,97639.84
2023-03-06T14:39:23.887Z,97638.88
2023-03-06T14:41:51.531Z,97637.77
2023-03-06T14:44:21.770Z,97635.48
2023-03-06T14:46:51.668Z,97637.33
2023-03-06T14:49:20.803Z,97638.34
2023-03-06T14:51:56.362Z,97636.73
2023-03-06T14:54:50.352Z,97637.02
2023-03-06T14:57:20.051Z,97640.95
2023-03-06T14:59:56.372Z,97637.45
2023-03-06T15:02:28.266Z,97637.38
2023-03-06T15:05:03.204Z,97638.52
2023-03-06T15:07:32.541Z,97638.80
2023-03-06T15:10:00.776Z,97639.02
2023-03-06T15:12:31.047Z,97637.95
2023-03-06T15:15:02.759Z,97629.73
2023-03-06T15:17:41.577Z,97635.35
2023-03-06T15:20:46.939Z,97633.44
2023-03-06T15:23:22.290Z,97634.88
2023-03-06T15:25:58.099Z,97634.09
2023-03-06T15:28:40.027Z,97637.02
2023-03-06T15:31:22.008Z,97640.90
2023-03-06T15:34:04.089Z,97644.20
2023-03-06T15:36:55.193Z,97646.95
2023-03-06T15:39:39.255Z,97653.40
2023-03-06T15:42:18.289Z,97650.91
2023-03-06T15:44:52.861Z,97652.95
2023-03-06T15:47:21.442Z,97651.78
2023-03-06T15:49:52.105Z,97649.23
2023-03-06T15:52:23.221Z,97647.80
2023-03-06T15:54:50.900Z,97645.48
2023-03-06T15:57:29.168Z,97648.73
2023-03-06T15:59:58.369Z,97653.48
2023-03-06T16:02:26.110Z,97656.29
2023-03-06T16:04:53.917Z,97654.70
2023-03-06T16:07:21.632Z,97655.05
2023-03-06T16:09:49.256Z,97654.16
2023-03-06T16:12:18.849Z,97655.17
2023-03-06T16:14:47.649Z,97654.98
2023-03-06T16:17:16.229Z,97655.61
2023-03-06T16:19:43.893Z,97655.98
2023-03-06T16:22:11.846Z,97657.48
2023-03-06T16:24:39.648Z,97654.20
2023-03-06T16:27:07.274Z,97654.52
2023-03-06T16:29:35.183Z,97654.69
2023-03-06T16:32:04.412Z,97652.75
2023-03-06T16:34:32.075Z,97649.64
2023-03-06T16:36:59.678Z,97653.04
2023-03-06T16:39:27.271Z,97651.02
2023-03-06T16:41:55.251Z,97652.52
2023-03-06T16:44:22.864Z,97653.09
2023-03-06T16:46:50.544Z,97653.56
2023-03-06T16:49:20.642Z,97647.17
2023-03-06T16:51:49.320Z,97648.27
2023-03-06T16:54:17.336Z,97647.14
2023-03-06T16:56:45.332Z,97646.73
2023-03-06T16:59:13.263Z,97646.11
2023-03-06T17:01:43.253Z,97649.09
2023-03-06T17:04:11.491Z,97650.41
2023-03-06T17:06:39.821Z,97650.34
2023-03-06T17:09:07.468Z,97649.36
2023-03-06T17:11:38.582Z,97648.55
2023-03-06T17:14:07.019Z,97649.23
2023-03-06T17:16:37.202Z,97651.92
2023-03-06T17:19:04.853Z,97649.25
2023-03-06T17:21:35.307Z,97654.55
2023-03-06T17:24:03.828Z,97650.02
2023-03-06T17:26:31.602Z,97655.23
2023-03-06T17:28:59.225Z,97653.69
2023-03-06T17:31:27.672Z,97653.62
2023-03-06T17:34:00.487Z,97649.86
2023-03-06T17:36:29.905Z,97652.63
2023-03-06T17:38:58.691Z,97649.89
2023-03-06T17:41:27.070Z,97647.40
2023-03-06T17:43:55.968Z,97642.48
2023-03-06T17:46:23.988Z,97644.22
2023-03-06T17:48:51.834Z,97648.24
2023-03-06T17:51:19.473Z,97648.66
2023-03-06T17:53:47.081Z,97653.75
2023-03-06T17:56:15.478Z,97649.52
2023-03-06T17:58:43.080Z,97656.42
2023-03-06T18:01:13.173Z,97656.83
2023-03-06T18:03:44.359Z,97658.23
2023-03-06T18:06:12.175Z,97659.09
2023-03-06T18:08:41.057Z,97654.95
2023-03-06T18:11:10.404Z,97649.29
2023-03-06T18:13:40.429Z,97654.28
2023-03-06T18:16:10.495Z,97654.20
2023-03-06T18:18:38.476Z,97649.05
2023-03-06T18:21:08.968Z,97654.59
2023-03-06T18:23:38.253Z,97657.14
2023-03-06T18:26:13.678Z,97654.70
2023-03-06T18:28:44.478Z,97653.69
2023-03-06T18:31:24.602Z,97657.67
2023-03-06T18:33:54.079Z,97660.21
2023-03-06T18:36:23.887Z,97656.14
2023-03-06T18:38:52.317Z,97654.05
2023-03-06T18:41:21.516Z,97654.84
2023-03-06T18:43:53.462Z,97655.86
2023-03-06T18:46:21.654Z,97655.52
2023-03-06T18:48:49.301Z,97660.33
2023-03-06T18:51:17.854Z,97655.60
2023-03-06T18:53:45.958Z,97658.80
2023-03-06T18:56:19.855Z,97654.85
2023-03-06T18:58:48.816Z,97657.64
2023-03-06T19:01:17.537Z,97657.74
2023-03-06T19:03:45.727Z,97657.42
2023-03-06T19:06:16.821Z,97660.42
2023-03-06T19:08:45.061Z,97658.92
2023-03-06T19:11:15.161Z,97651.07
2023-03-06T19:13:43.644Z,97647.20
2023-03-06T19:16:22.571Z,97647.28
2023-03-06T19:18:50.904Z,97646.88
2023-03-06T19:21:20.251Z,97651.48
2023-03-06T19:23:48.143Z,97651.13
2023-03-06T19:26:18.642Z,97647.48
2023-03-06T19:28:47.704Z,97648.34
2023-03-06T19:31:20.812Z,97651.36
2023-03-06T19:33:49.603Z,97654.75
2023-03-06T19:36:20.204Z,97654.23
2023-03-06T19:38:52.516Z,97655.31
2023-03-06T19:41:20.108Z,97656.75
2023-03-06T19:43:52.056Z,97655.64
2023-03-06T19:46:21.355Z,97656.70
2023-03-06T19:48:54.399Z,97658.44
2023-03-06T19:51:22.124Z,97656.73
2023-03-06T19:53:49.727Z,97654.39
2023-03-06T19:56:22.574Z,97651.80
2023-03-06T19:58:50.964Z,97649.86
2023-03-06T20:01:20.245Z,97650.67
2023-03-06T20:03:49.368Z,97653.96
2023-03-06T20:06:19.464Z,97651.05
2023-03-06T20:08:47.813Z,97652.23
2023-03-06T20:11:16.892Z,97649.66
2023-03-06T20:13:47.468Z,97655.92
2023-03-06T20:16:16.920Z,97659.50
2023-03-06T20:18:45.472Z,97659.06
2023-03-06T20:21:13.708Z,97663.45
2023-03-06T20:23:41.864Z,97661.96
2023-03-06T20:26:12.254Z,97664.63
2023-03-06T20:28:41.186Z,97660.52
2023-03-06T20:31:18.167Z,97660.90
2023-03-06T20:33:47.522Z,97662.59
2023-03-06T20:36:18.094Z,97661.30
2023-03-06T20:38:47.152Z,97664.23
2023-03-06T20:41:16.439Z,97661.69
2023-03-06T20:43:44.477Z,97664.07
2023-03-06T20:46:13.019Z,97666.64
2023-03-06T20:48:41.579Z,97664.00
2023-03-06T20:51:16.175Z,97664.89
2023-03-06T20:53:44.013Z,97669.02
2023-03-06T20:56:15.961Z,97666.83
2023-03-06T20:58:44.341Z,97665.00
2023-03-06T21:01:21.429Z,97670.98
2023-03-06T21:03:49.372Z,97668.95
2023-03-06T21:06:17.869Z,97663.23
2023-03-06T21:08:45.527Z,97661.55
2023-03-06T21:11:13.333Z,97664.52
2023-03-06T21:13:40.927Z,97667.31
2023-03-06T21:16:11.629Z,97663.02
2023-03-06T21:18:40.019Z,97670.82
2023-03-06T21:21:09.466Z,97666.70
2023-03-06T21:23:37.939Z,97664.98
2023-03-06T21:26:05.647Z,97666.74
2023-03-06T21:28:33.323Z,97664.48
2023-03-06T21:31:01.893Z,97666.23
2023-03-06T21:33:29.721Z,97667.30
2023-03-06T21:35:57.341Z,97667.56
2023-03-06T21:38:25.145Z,97673.85
2023-03-06T21:40:52.768Z,97678.09
2023-03-06T21:43:20.367Z,97679.75
2023-03-06T21:45:48.852Z,97678.65
2023-03-06T21:48:16.543Z,97685.11
2023-03-06T21:50:44.146Z,97689.07
2023-03-06T21:53:11.969Z,97688.38
2023-03-06T21:55:40.856Z,97689.38
2023-03-06T21:58:08.802Z,97690.91
2023-03-06T22:00:36.759Z,97686.77
2023-03-06T22:03:04.791Z,97685.86
2023-03-06T22:05:32.646Z,97687.33
2023-03-06T22:08:00.316Z,97689.02
2023-03-06T22:10:28.158Z,97688.50
2023-03-06T22:12:55.754Z,97688.30
2023-03-06T22:15:23.443Z,97690.06
2023-03-06T22:17:51.231Z,97688.80
2023-03-06T22:20:18.967Z,97688.92
2023-03-06T22:22:46.600Z,97690.63
2023-03-06T22:25:14.835Z,97694.50
2023-03-06T22:27:42.420Z,97697.06
2023-03-06T22:30:10.812Z,97695.05
2023-03-06T22:32:38.504Z,97696.45
2023-03-06T22:35:06.699Z,97697.18
2023-03-06T22:37:34.296Z,97702.90
2023-03-06T22:40:01.957Z,97701.00
2023-03-06T22:42:29.600Z,97704.46
2023-03-06T22:44:57.171Z,97706.07
2023-03-06T22:47:24.753Z,97705.50
2023-03-06T22:49:52.380Z,97710.01
2023-03-06T22:52:20.024Z,97706.30
2023-03-06T22:54:47.608Z,97706.79
2023-03-06T22:57:15.191Z,97708.02
2023-03-06T22:59:42.800Z,97712.73
2023-03-06T23:02:10.394Z,97712.90
2023-03-06T23:04:38.749Z,97715.82
2023-03-06T23:07:06.379Z,97713.46
2023-03-06T23:09:34.004Z,97714.36
2023-03-06T23:12:20.522Z,97717.04
2023-03-06T23:15:08.208Z,97722.60
2023-03-06T23:17:54.442Z,97723.07
2023-03-06T23:20:44.013Z,97718.42
2023-03-06T23:23:30.346Z,97716.35
2023-03-06T23:26:01.184Z,97717.73
2023-03-06T23:28:28.906Z,97715.30
2023-03-06T23:30:56.582Z,97716.48
2023-03-06T23:33:24.544Z,97717.77
2023-03-06T23:35:52.227Z,97720.69
2023-03-06T23:38:19.902Z,97720.23
2023-03-06T23:40:47.554Z,97724.50
2023-03-06T23:43:15.158Z,97721.31
2023-03-06T23:45:52.198Z,97726.41
2023-03-06T23:48:19.860Z,97725.02
2023-03-06T23:50:47.496Z,97724.30
2023-03-06T23:53:15.671Z,97722.27
2023-03-06T23:55:45.020Z,97717.83
2023-03-06T23:58:13.589Z,97718.56
